sensor_id;sensor_type;location;lat;lon;timestamp;pressure;altitude;pressure_sealevel;temperature;humidity
76074;BME280;64776;42.636;24.358;2022-12-18T00:02:37;90707.41;;;4.86;88.50
76074;BME280;64776;42.636;24.358;2022-12-18T00:05:37;90704.47;;;4.84;88.24
76074;BME280;64776;42.636;24.358;2022-12-18T00:08:46;90707.53;;;4.83;88.45
76074;BME280;64776;42.636;24.358;2022-12-18T00:11:47;90715.88;;;4.81;87.99
76074;BME280;64776;42.636;24.358;2022-12-18T00:14:48;90719.59;;;4.84;88.68
76074;BME280;64776;42.636;24.358;2022-12-18T00:17:50;90717.47;;;4.79;88.99
76074;BME280;64776;42.636;24.358;2022-12-18T00:20:51;90721.81;;;4.85;88.18
76074;BME280;64776;42.636;24.358;2022-12-18T00:23:51;90722.88;;;4.88;88.99
76074;BME280;64776;42.636;24.358;2022-12-18T00:26:52;90723.53;;;4.92;88.62
76074;BME280;64776;42.636;24.358;2022-12-18T00:29:53;90721.28;;;4.90;87.97
76074;BME280;64776;42.636;24.358;2022-12-18T00:32:55;90733.47;;;5.01;87.32
76074;BME280;64776;42.636;24.358;2022-12-18T00:36:00;90732.91;;;4.93;88.22
76074;BME280;64776;42.636;24.358;2022-12-18T00:39:04;90739.91;;;4.87;89.33
76074;BME280;64776;42.636;24.358;2022-12-18T00:42:04;90741.56;;;4.81;88.42
76074;BME280;64776;42.636;24.358;2022-12-18T00:45:06;90741.56;;;4.81;88.83
76074;BME280;64776;42.636;24.358;2022-12-18T00:48:08;90742.94;;;4.73;88.18
76074;BME280;64776;42.636;24.358;2022-12-18T00:51:09;90749.91;;;4.67;89.13
76074;BME280;64776;42.636;24.358;2022-12-18T00:54:10;90745.69;;;4.69;88.67
76074;BME280;64776;42.636;24.358;2022-12-18T00:57:11;90744.94;;;4.69;88.65
76074;BME280;64776;42.636;24.358;2022-12-18T01:00:13;90738.91;;;4.68;89.42
76074;BME280;64776;42.636;24.358;2022-12-18T01:03:16;90738.41;;;4.73;88.90
76074;BME280;64776;42.636;24.358;2022-12-18T01:06:17;90748.69;;;4.84;89.60
76074;BME280;64776;42.636;24.358;2022-12-18T01:09:17;90749.41;;;4.84;89.49
76074;BME280;64776;42.636;24.358;2022-12-18T01:12:18;90751.16;;;4.62;90.71
76074;BME280;64776;42.636;24.358;2022-12-18T01:15:19;90758.59;;;4.67;91.00
76074;BME280;64776;42.636;24.358;2022-12-18T01:18:21;90751.06;;;4.66;90.48
76074;BME280;64776;42.636;24.358;2022-12-18T01:21:23;90759.41;;;4.64;91.41
76074;BME280;64776;42.636;24.358;2022-12-18T01:24:24;90755.66;;;4.78;90.76
76074;BME280;64776;42.636;24.358;2022-12-18T01:27:25;90752.69;;;4.76;90.50
76074;BME280;64776;42.636;24.358;2022-12-18T01:30:26;90758.19;;;4.81;90.40
76074;BME280;64776;42.636;24.358;2022-12-18T01:33:28;90758.81;;;4.85;91.11
76074;BME280;64776;42.636;24.358;2022-12-18T01:36:30;90759.78;;;4.91;92.55
76074;BME280;64776;42.636;24.358;2022-12-18T01:39:31;90748.91;;;5.02;91.42
76074;BME280;64776;42.636;24.358;2022-12-18T01:42:33;90761.59;;;5.20;90.95
76074;BME280;64776;42.636;24.358;2022-12-18T01:45:34;90754.63;;;5.26;90.48
76074;BME280;64776;42.636;24.358;2022-12-18T01:48:37;90758.97;;;5.20;90.25
76074;BME280;64776;42.636;24.358;2022-12-18T01:51:39;90756.88;;;5.15;89.70
76074;BME280;64776;42.636;24.358;2022-12-18T01:54:39;90756.72;;;5.06;89.01
76074;BME280;64776;42.636;24.358;2022-12-18T01:57:41;90753.03;;;5.03;90.20
76074;BME280;64776;42.636;24.358;2022-12-18T02:00:42;90755.66;;;4.90;90.47
76074;BME280;64776;42.636;24.358;2022-12-18T02:03:45;90756.09;;;5.02;91.13
76074;BME280;64776;42.636;24.358;2022-12-18T02:06:47;90770.28;;;5.08;91.04
76074;BME280;64776;42.636;24.358;2022-12-18T02:09:57;90770.84;;;5.15;91.12
76074;BME280;64776;42.636;24.358;2022-12-18T02:13:06;90765.44;;;5.19;90.12
76074;BME280;64776;42.636;24.358;2022-12-18T02:16:19;90765.31;;;5.22;89.97
76074;BME280;64776;42.636;24.358;2022-12-18T02:19:39;90764.69;;;5.31;89.65
76074;BME280;64776;42.636;24.358;2022-12-18T02:22:53;90773.38;;;5.31;90.04
76074;BME280;64776;42.636;24.358;2022-12-18T02:26:17;90761.41;;;5.39;90.19
76074;BME280;64776;42.636;24.358;2022-12-18T02:29:22;90767.66;;;5.33;90.11
76074;BME280;64776;42.636;24.358;2022-12-18T02:32:26;90768.81;;;5.32;90.63
76074;BME280;64776;42.636;24.358;2022-12-18T02:35:29;90766.69;;;5.27;89.99
76074;BME280;64776;42.636;24.358;2022-12-18T02:38:31;90773.38;;;5.31;89.81
76074;BME280;64776;42.636;24.358;2022-12-18T02:41:36;90767.97;;;5.35;89.61
76074;BME280;64776;42.636;24.358;2022-12-18T02:44:42;90778.97;;;5.21;91.05
76074;BME280;64776;42.636;24.358;2022-12-18T02:47:46;90778.44;;;5.26;90.94
76074;BME280;64776;42.636;24.358;2022-12-18T02:50:51;90784.38;;;5.30;91.37
76074;BME280;64776;42.636;24.358;2022-12-18T02:54:00;90783.72;;;5.26;91.59
76074;BME280;64776;42.636;24.358;2022-12-18T02:57:13;90771.56;;;5.16;92.81
76074;BME280;64776;42.636;24.358;2022-12-18T03:00:18;90779.81;;;5.18;93.10
76074;BME280;64776;42.636;24.358;2022-12-18T03:03:25;90784.81;;;5.41;93.68
76074;BME280;64776;42.636;24.358;2022-12-18T03:06:32;90779.19;;;5.39;93.47
76074;BME280;64776;42.636;24.358;2022-12-18T03:09:38;90791.59;;;5.42;94.31
76074;BME280;64776;42.636;24.358;2022-12-18T03:12:44;90785.75;;;5.47;94.49
76074;BME280;64776;42.636;24.358;2022-12-18T03:15:49;90783.75;;;5.51;94.48
76074;BME280;64776;42.636;24.358;2022-12-18T03:18:54;90784.06;;;5.53;94.88
76074;BME280;64776;42.636;24.358;2022-12-18T03:21:58;90778.25;;;5.45;95.05
76074;BME280;64776;42.636;24.358;2022-12-18T03:25:02;90785.63;;;5.50;95.63
76074;BME280;64776;42.636;24.358;2022-12-18T03:28:07;90783.31;;;5.52;94.93
76074;BME280;64776;42.636;24.358;2022-12-18T03:31:12;90783.75;;;5.63;94.33
76074;BME280;64776;42.636;24.358;2022-12-18T03:34:17;90785.88;;;5.56;94.58
76074;BME280;64776;42.636;24.358;2022-12-18T03:37:20;90791.69;;;5.51;95.36
76074;BME280;64776;42.636;24.358;2022-12-18T03:40:25;90795.59;;;5.46;95.17
76074;BME280;64776;42.636;24.358;2022-12-18T03:43:36;90796.97;;;5.51;95.06
76074;BME280;64776;42.636;24.358;2022-12-18T03:46:45;90798.78;;;5.54;94.85
76074;BME280;64776;42.636;24.358;2022-12-18T03:49:55;90810.09;;;5.54;94.88
76074;BME280;64776;42.636;24.358;2022-12-18T03:53:03;90808.75;;;5.50;95.18
76074;BME280;64776;42.636;24.358;2022-12-18T03:56:08;90810.22;;;5.51;95.59
76074;BME280;64776;42.636;24.358;2022-12-18T03:59:12;90807.66;;;5.47;94.62
76074;BME280;64776;42.636;24.358;2022-12-18T04:02:16;90808.81;;;5.34;95.10
76074;BME280;64776;42.636;24.358;2022-12-18T04:05:18;90806.59;;;5.32;96.07
76074;BME280;64776;42.636;24.358;2022-12-18T04:08:20;90808.59;;;5.16;95.63
76074;BME280;64776;42.636;24.358;2022-12-18T04:11:22;90810.06;;;5.17;96.24
76074;BME280;64776;42.636;24.358;2022-12-18T04:14:25;90817.88;;;5.08;96.35
76074;BME280;64776;42.636;24.358;2022-12-18T04:17:26;90820.84;;;5.10;96.60
76074;BME280;64776;42.636;24.358;2022-12-18T04:20:26;90830.75;;;4.93;96.93
76074;BME280;64776;42.636;24.358;2022-12-18T04:23:27;90830.09;;;4.89;97.06
76074;BME280;64776;42.636;24.358;2022-12-18T04:26:28;90830.53;;;4.87;97.22
76074;BME280;64776;42.636;24.358;2022-12-18T04:29:30;90838.78;;;4.89;96.72
76074;BME280;64776;42.636;24.358;2022-12-18T04:32:31;90836.78;;;4.93;96.03
76074;BME280;64776;42.636;24.358;2022-12-18T04:35:33;90842.41;;;4.95;96.83
76074;BME280;64776;42.636;24.358;2022-12-18T04:38:34;90850.81;;;4.90;96.88
76074;BME280;64776;42.636;24.358;2022-12-18T04:41:35;90854.78;;;4.99;95.77
76074;BME280;64776;42.636;24.358;2022-12-18T04:44:37;90850.53;;;5.01;96.38
76074;BME280;64776;42.636;24.358;2022-12-18T04:47:38;90857.84;;;4.97;96.40
76074;BME280;64776;42.636;24.358;2022-12-18T04:50:39;90867.81;;;5.06;95.72
76074;BME280;64776;42.636;24.358;2022-12-18T04:53:39;90863.81;;;5.14;95.80
76074;BME280;64776;42.636;24.358;2022-12-18T04:56:40;90869.75;;;5.18;95.14
76074;BME280;64776;42.636;24.358;2022-12-18T04:59:42;90870.22;;;5.00;94.67
76074;BME280;64776;42.636;24.358;2022-12-18T05:02:43;90871.91;;;4.94;95.12
76074;BME280;64776;42.636;24.358;2022-12-18T05:05:44;90874.63;;;4.90;95.65
76074;BME280;64776;42.636;24.358;2022-12-18T05:08:45;90880.59;;;4.94;96.10
76074;BME280;64776;42.636;24.358;2022-12-18T05:11:45;90883.31;;;4.91;95.19
76074;BME280;64776;42.636;24.358;2022-12-18T05:14:47;90886.38;;;4.89;95.63
76074;BME280;64776;42.636;24.358;2022-12-18T05:17:48;90892.47;;;4.86;95.82
76074;BME280;64776;42.636;24.358;2022-12-18T05:20:49;90892.16;;;4.84;95.41
76074;BME280;64776;42.636;24.358;2022-12-18T05:23:50;90900.09;;;4.84;96.13
76074;BME280;64776;42.636;24.358;2022-12-18T05:26:51;90905.38;;;4.84;95.02
76074;BME280;64776;42.636;24.358;2022-12-18T05:29:53;90919.66;;;4.87;95.46
76074;BME280;64776;42.636;24.358;2022-12-18T05:32:54;90916.97;;;4.74;95.00
76074;BME280;64776;42.636;24.358;2022-12-18T05:35:57;90922.09;;;4.81;95.44
76074;BME280;64776;42.636;24.358;2022-12-18T05:38:58;90924.09;;;4.61;94.80
76074;BME280;64776;42.636;24.358;2022-12-18T05:41:58;90922.84;;;4.66;94.98
76074;BME280;64776;42.636;24.358;2022-12-18T05:45:00;90929.19;;;4.68;94.59
76074;BME280;64776;42.636;24.358;2022-12-18T05:48:01;90934.06;;;4.70;95.36
76074;BME280;64776;42.636;24.358;2022-12-18T05:51:06;90927.72;;;4.67;94.96
76074;BME280;64776;42.636;24.358;2022-12-18T05:54:07;90933.41;;;4.66;94.33
76074;BME280;64776;42.636;24.358;2022-12-18T05:57:08;90941.28;;;4.53;94.42
76074;BME280;64776;42.636;24.358;2022-12-18T06:00:12;90939.31;;;4.57;95.15
76074;BME280;64776;42.636;24.358;2022-12-18T06:03:13;90955.63;;;4.68;93.43
76074;BME280;64776;42.636;24.358;2022-12-18T06:06:15;90953.09;;;4.49;93.76
76074;BME280;64776;42.636;24.358;2022-12-18T06:09:16;90958.94;;;4.56;94.22
76074;BME280;64776;42.636;24.358;2022-12-18T06:12:16;90966.22;;;4.52;94.60
76074;BME280;64776;42.636;24.358;2022-12-18T06:15:19;90962.09;;;4.51;93.99
76074;BME280;64776;42.636;24.358;2022-12-18T06:18:19;90972.63;;;4.35;93.61
76074;BME280;64776;42.636;24.358;2022-12-18T06:21:20;90967.31;;;4.39;93.89
76074;BME280;64776;42.636;24.358;2022-12-18T06:24:21;90979.91;;;4.31;93.91
76074;BME280;64776;42.636;24.358;2022-12-18T06:27:22;90994.94;;;4.34;94.15
76074;BME280;64776;42.636;24.358;2022-12-18T06:30:24;90993.78;;;4.35;94.14
76074;BME280;64776;42.636;24.358;2022-12-18T06:33:26;90990.31;;;4.38;94.30
76074;BME280;64776;42.636;24.358;2022-12-18T06:36:29;90998.25;;;4.38;94.25
76074;BME280;64776;42.636;24.358;2022-12-18T06:39:30;90995.59;;;4.38;94.34
76074;BME280;64776;42.636;24.358;2022-12-18T06:42:31;91002.53;;;4.32;93.79
76074;BME280;64776;42.636;24.358;2022-12-18T06:45:33;91005.16;;;4.16;94.48
76074;BME280;64776;42.636;24.358;2022-12-18T06:48:34;91004.19;;;4.26;93.92
76074;BME280;64776;42.636;24.358;2022-12-18T06:51:35;91004.19;;;4.26;93.91
76074;BME280;64776;42.636;24.358;2022-12-18T06:54:36;91017.63;;;4.16;94.03
76074;BME280;64776;42.636;24.358;2022-12-18T06:57:37;91008.69;;;4.09;94.15
76074;BME280;64776;42.636;24.358;2022-12-18T07:00:40;91016.50;;;3.97;95.30
76074;BME280;64776;42.636;24.358;2022-12-18T07:03:41;91011.69;;;3.92;94.71
76074;BME280;64776;42.636;24.358;2022-12-18T07:06:42;91025.00;;;4.04;95.37
76074;BME280;64776;42.636;24.358;2022-12-18T07:09:42;91018.25;;;4.03;94.62
76074;BME280;64776;42.636;24.358;2022-12-18T07:12:43;91016.63;;;4.09;94.58
76074;BME280;64776;42.636;24.358;2022-12-18T07:15:45;91011.03;;;4.24;95.25
76074;BME280;64776;42.636;24.358;2022-12-18T07:18:46;91022.03;;;4.38;94.20
76074;BME280;64776;42.636;24.358;2022-12-18T07:21:47;91013.00;;;4.36;94.07
76074;BME280;64776;42.636;24.358;2022-12-18T07:24:48;91015.66;;;4.36;93.86
76074;BME280;64776;42.636;24.358;2022-12-18T07:27:49;91012.63;;;4.53;93.58
76074;BME280;64776;42.636;24.358;2022-12-18T07:30:51;91016.69;;;4.74;93.23
76074;BME280;64776;42.636;24.358;2022-12-18T07:33:52;91019.00;;;4.88;92.75
76074;BME280;64776;42.636;24.358;2022-12-18T07:36:53;91025.16;;;4.97;91.57
76074;BME280;64776;42.636;24.358;2022-12-18T07:39:54;91034.84;;;5.04;91.34
76074;BME280;64776;42.636;24.358;2022-12-18T07:42:54;91027.31;;;5.03;91.53
76074;BME280;64776;42.636;24.358;2022-12-18T07:45:56;91032.94;;;5.05;91.36
76074;BME280;64776;42.636;24.358;2022-12-18T07:48:57;91027.78;;;5.14;91.55
76074;BME280;64776;42.636;24.358;2022-12-18T07:51:58;91022.78;;;5.32;91.31
76074;BME280;64776;42.636;24.358;2022-12-18T07:54:59;91028.25;;;5.41;91.03
76074;BME280;64776;42.636;24.358;2022-12-18T07:58:01;91025.44;;;5.48;91.40
76074;BME280;64776;42.636;24.358;2022-12-18T08:01:04;91024.44;;;5.70;90.78
76074;BME280;64776;42.636;24.358;2022-12-18T08:04:05;91028.13;;;5.89;90.41
76074;BME280;64776;42.636;24.358;2022-12-18T08:07:06;91026.97;;;6.03;89.80
76074;BME280;64776;42.636;24.358;2022-12-18T08:10:08;91025.41;;;6.05;89.54
76074;BME280;64776;42.636;24.358;2022-12-18T08:13:08;91029.22;;;6.17;89.70
76074;BME280;64776;42.636;24.358;2022-12-18T08:16:10;91029.66;;;6.15;89.61
76074;BME280;64776;42.636;24.358;2022-12-18T08:19:11;91040.78;;;6.23;88.81
76074;BME280;64776;42.636;24.358;2022-12-18T08:22:12;91047.66;;;6.20;89.08
76074;BME280;64776;42.636;24.358;2022-12-18T08:25:13;91046.63;;;6.18;89.06
76074;BME280;64776;42.636;24.358;2022-12-18T08:28:17;91047.44;;;6.02;90.55
76074;BME280;64776;42.636;24.358;2022-12-18T08:31:19;91053.47;;;6.03;89.61
76074;BME280;64776;42.636;24.358;2022-12-18T08:34:20;91054.13;;;5.78;90.02
76074;BME280;64776;42.636;24.358;2022-12-18T08:37:21;91051.03;;;5.79;90.40
76074;BME280;64776;42.636;24.358;2022-12-18T08:40:21;91052.03;;;5.86;91.14
76074;BME280;64776;42.636;24.358;2022-12-18T08:43:22;91058.44;;;6.01;91.17
76074;BME280;64776;42.636;24.358;2022-12-18T08:46:26;91044.41;;;5.88;90.60
76074;BME280;64776;42.636;24.358;2022-12-18T08:49:27;91051.97;;;5.73;90.98
76074;BME280;64776;42.636;24.358;2022-12-18T08:52:28;91047.00;;;5.46;91.49
76074;BME280;64776;42.636;24.358;2022-12-18T08:55:29;91052.03;;;5.12;91.48
76074;BME280;64776;42.636;24.358;2022-12-18T08:58:30;91059.22;;;5.12;92.33
76074;BME280;64776;42.636;24.358;2022-12-18T09:01:32;91059.13;;;4.99;92.13
76074;BME280;64776;42.636;24.358;2022-12-18T09:04:33;91062.94;;;4.82;92.26
76074;BME280;64776;42.636;24.358;2022-12-18T09:07:33;91066.97;;;4.70;93.28
76074;BME280;64776;42.636;24.358;2022-12-18T09:10:41;91061.69;;;4.70;93.54
76074;BME280;64776;42.636;24.358;2022-12-18T09:13:42;91055.06;;;4.78;93.71
76074;BME280;64776;42.636;24.358;2022-12-18T09:16:44;91068.25;;;4.82;92.20
76074;BME280;64776;42.636;24.358;2022-12-18T09:19:45;91081.75;;;4.68;92.37
76074;BME280;64776;42.636;24.358;2022-12-18T09:22:45;91080.34;;;4.63;92.53
76074;BME280;64776;42.636;24.358;2022-12-18T09:25:46;91086.78;;;4.62;92.90
76074;BME280;64776;42.636;24.358;2022-12-18T09:28:47;91080.66;;;4.49;93.59
76074;BME280;64776;42.636;24.358;2022-12-18T09:31:50;91077.75;;;4.44;93.25
76074;BME280;64776;42.636;24.358;2022-12-18T09:34:50;91082.16;;;4.50;93.50
76074;BME280;64776;42.636;24.358;2022-12-18T09:37:51;91083.47;;;4.58;93.40
76074;BME280;64776;42.636;24.358;2022-12-18T09:40:54;91080.50;;;4.56;93.51
76074;BME280;64776;42.636;24.358;2022-12-18T09:43:59;91075.06;;;4.63;92.86
76074;BME280;64776;42.636;24.358;2022-12-18T09:47:13;91073.31;;;4.57;92.88
76074;BME280;64776;42.636;24.358;2022-12-18T09:50:23;91078.19;;;4.58;93.05
76074;BME280;64776;42.636;24.358;2022-12-18T09:53:28;91072.72;;;4.49;93.10
76074;BME280;64776;42.636;24.358;2022-12-18T09:56:35;91070.50;;;4.64;92.90
76074;BME280;64776;42.636;24.358;2022-12-18T09:59:38;91069.06;;;4.43;93.76
76074;BME280;64776;42.636;24.358;2022-12-18T10:02:41;91077.00;;;4.43;93.13
76074;BME280;64776;42.636;24.358;2022-12-18T10:05:48;91072.88;;;4.42;93.08
76074;BME280;64776;42.636;24.358;2022-12-18T10:08:57;91067.38;;;4.53;93.08
76074;BME280;64776;42.636;24.358;2022-12-18T10:12:07;91057.28;;;4.64;93.62
76074;BME280;64776;42.636;24.358;2022-12-18T10:15:14;91067.16;;;4.79;92.95
76074;BME280;64776;42.636;24.358;2022-12-18T10:18:26;91066.97;;;4.70;92.61
76074;BME280;64776;42.636;24.358;2022-12-18T10:21:35;91061.13;;;4.79;93.00
76074;BME280;64776;42.636;24.358;2022-12-18T10:24:42;91069.47;;;4.77;91.98
76074;BME280;64776;42.636;24.358;2022-12-18T10:27:46;91065.16;;;4.67;92.89
76074;BME280;64776;42.636;24.358;2022-12-18T10:30:47;91068.19;;;4.66;93.05
76074;BME280;64776;42.636;24.358;2022-12-18T10:33:49;91061.91;;;4.44;93.55
76074;BME280;64776;42.636;24.358;2022-12-18T10:36:50;91075.56;;;4.58;93.02
76074;BME280;64776;42.636;24.358;2022-12-18T10:40:07;91072.50;;;4.60;93.47
76074;BME280;64776;42.636;24.358;2022-12-18T10:43:11;91072.75;;;4.65;92.69
76074;BME280;64776;42.636;24.358;2022-12-18T10:46:15;91060.91;;;4.54;92.95
76074;BME280;64776;42.636;24.358;2022-12-18T10:49:22;91069.03;;;4.79;91.98
76074;BME280;64776;42.636;24.358;2022-12-18T10:52:25;91066.31;;;4.66;92.61
76074;BME280;64776;42.636;24.358;2022-12-18T10:55:31;91070.72;;;4.37;93.61
76074;BME280;64776;42.636;24.358;2022-12-18T10:58:34;91063.31;;;4.48;93.12
76074;BME280;64776;42.636;24.358;2022-12-18T11:01:47;91070.38;;;4.35;93.48
76074;BME280;64776;42.636;24.358;2022-12-18T11:04:52;91068.56;;;4.32;92.37
76074;BME280;64776;42.636;24.358;2022-12-18T11:07:53;91065.84;;;4.36;92.86
76074;BME280;64776;42.636;24.358;2022-12-18T11:10:54;91068.75;;;4.41;93.42
76074;BME280;64776;42.636;24.358;2022-12-18T11:13:59;91069.41;;;4.45;93.11
76074;BME280;64776;42.636;24.358;2022-12-18T11:17:01;91065.41;;;4.73;92.98
76074;BME280;64776;42.636;24.358;2022-12-18T11:20:05;91066.97;;;4.86;91.32
76074;BME280;64776;42.636;24.358;2022-12-18T11:23:12;91064.94;;;4.78;91.53
76074;BME280;64776;42.636;24.358;2022-12-18T11:26:13;91063.00;;;4.62;92.52
76074;BME280;64776;42.636;24.358;2022-12-18T11:29:17;91063.97;;;4.52;91.17
76074;BME280;64776;42.636;24.358;2022-12-18T11:32:32;91062.63;;;4.28;92.34
76074;BME280;64776;42.636;24.358;2022-12-18T11:35:42;91063.72;;;4.31;93.09
76074;BME280;64776;42.636;24.358;2022-12-18T11:38:47;91065.94;;;4.32;92.08
76074;BME280;64776;42.636;24.358;2022-12-18T11:41:53;91070.47;;;4.32;92.79
76074;BME280;64776;42.636;24.358;2022-12-18T11:44:59;91075.16;;;4.24;92.46
76074;BME280;64776;42.636;24.358;2022-12-18T11:48:03;91084.22;;;4.23;92.17
76074;BME280;64776;42.636;24.358;2022-12-18T11:51:12;91090.97;;;4.08;92.87
76074;BME280;64776;42.636;24.358;2022-12-18T11:54:15;91096.59;;;4.10;93.59
76074;BME280;64776;42.636;24.358;2022-12-18T11:57:24;91084.97;;;4.04;93.06
76074;BME280;64776;42.636;24.358;2022-12-18T12:00:30;91079.97;;;3.90;92.79
76074;BME280;64776;42.636;24.358;2022-12-18T12:03:50;91081.59;;;3.84;92.91
76074;BME280;64776;42.636;24.358;2022-12-18T12:07:04;91080.31;;;3.92;92.95
76074;BME280;64776;42.636;24.358;2022-12-18T12:10:22;91072.63;;;4.01;93.71
76074;BME280;64776;42.636;24.358;2022-12-18T12:13:36;91082.22;;;4.11;92.61
76074;BME280;64776;42.636;24.358;2022-12-18T12:16:47;91074.03;;;3.86;93.51
76074;BME280;64776;42.636;24.358;2022-12-18T12:19:58;91083.44;;;3.87;92.63
76074;BME280;64776;42.636;24.358;2022-12-18T12:23:08;91085.69;;;3.88;93.99
76074;BME280;64776;42.636;24.358;2022-12-18T12:26:17;91083.78;;;3.89;93.85
76074;BME280;64776;42.636;24.358;2022-12-18T12:29:31;91086.28;;;3.96;93.14
76074;BME280;64776;42.636;24.358;2022-12-18T12:32:55;91087.22;;;3.86;92.74
76074;BME280;64776;42.636;24.358;2022-12-18T12:36:08;91095.19;;;3.63;93.52
76074;BME280;64776;42.636;24.358;2022-12-18T12:39:18;91099.06;;;3.78;93.82
76074;BME280;64776;42.636;24.358;2022-12-18T12:42:27;91103.13;;;3.82;94.00
76074;BME280;64776;42.636;24.358;2022-12-18T12:45:34;91104.69;;;3.80;93.46
76074;BME280;64776;42.636;24.358;2022-12-18T12:48:42;91103.06;;;3.86;92.88
76074;BME280;64776;42.636;24.358;2022-12-18T12:51:49;91110.91;;;3.70;93.59
76074;BME280;64776;42.636;24.358;2022-12-18T12:54:53;91111.25;;;3.52;93.65
76074;BME280;64776;42.636;24.358;2022-12-18T12:58:02;91113.56;;;3.47;93.63
76074;BME280;64776;42.636;24.358;2022-12-18T13:01:12;91122.69;;;3.42;93.98
76074;BME280;64776;42.636;24.358;2022-12-18T13:04:23;91124.53;;;3.45;94.29
76074;BME280;64776;42.636;24.358;2022-12-18T13:07:32;91128.97;;;3.52;93.76
76074;BME280;64776;42.636;24.358;2022-12-18T13:10:39;91127.28;;;3.38;93.49
76074;BME280;64776;42.636;24.358;2022-12-18T13:13:49;91129.53;;;3.40;94.42
76074;BME280;64776;42.636;24.358;2022-12-18T13:16:50;91132.53;;;3.42;94.15
76074;BME280;64776;42.636;24.358;2022-12-18T13:19:52;91142.38;;;3.38;94.35
76074;BME280;64776;42.636;24.358;2022-12-18T13:23:19;91138.59;;;3.39;94.35
76074;BME280;64776;42.636;24.358;2022-12-18T13:26:34;91136.88;;;3.52;93.55
76074;BME280;64776;42.636;24.358;2022-12-18T13:29:43;91143.03;;;3.65;93.93
76074;BME280;64776;42.636;24.358;2022-12-18T13:32:44;91144.63;;;3.82;93.23
76074;BME280;64776;42.636;24.358;2022-12-18T13:35:52;91143.00;;;3.88;92.72
76074;BME280;64776;42.636;24.358;2022-12-18T13:39:15;91142.53;;;3.93;92.21
76074;BME280;64776;42.636;24.358;2022-12-18T13:42:40;91146.47;;;4.04;91.93
76074;BME280;64776;42.636;24.358;2022-12-18T13:45:44;91154.06;;;4.22;91.66
76074;BME280;64776;42.636;24.358;2022-12-18T13:48:57;91161.44;;;4.11;91.62
76074;BME280;64776;42.636;24.358;2022-12-18T13:51:58;91156.34;;;4.00;91.75
76074;BME280;64776;42.636;24.358;2022-12-18T13:55:02;91164.56;;;3.63;92.29
76074;BME280;64776;42.636;24.358;2022-12-18T13:58:06;91171.59;;;3.70;92.03
76074;BME280;64776;42.636;24.358;2022-12-18T14:01:21;91164.63;;;3.79;91.93
76074;BME280;64776;42.636;24.358;2022-12-18T14:04:25;91171.75;;;3.82;91.49
76074;BME280;64776;42.636;24.358;2022-12-18T14:07:28;91176.94;;;3.66;92.77
76074;BME280;64776;42.636;24.358;2022-12-18T14:10:30;91172.63;;;3.53;92.34
76074;BME280;64776;42.636;24.358;2022-12-18T14:13:35;91177.94;;;3.29;92.77
76074;BME280;64776;42.636;24.358;2022-12-18T14:16:36;91192.34;;;3.21;94.05
76074;BME280;64776;42.636;24.358;2022-12-18T14:19:41;91199.19;;;3.19;93.95
76074;BME280;64776;42.636;24.358;2022-12-18T14:22:43;91190.81;;;3.24;93.57
76074;BME280;64776;42.636;24.358;2022-12-18T14:25:46;91196.00;;;3.31;93.72
76074;BME280;64776;42.636;24.358;2022-12-18T14:28:48;91185.94;;;3.22;93.34
76074;BME280;64776;42.636;24.358;2022-12-18T14:32:09;91199.91;;;3.19;94.11
76074;BME280;64776;42.636;24.358;2022-12-18T14:35:13;91212.06;;;3.13;93.94
76074;BME280;64776;42.636;24.358;2022-12-18T14:38:25;91212.75;;;3.17;94.01
76074;BME280;64776;42.636;24.358;2022-12-18T14:41:26;91215.22;;;3.28;93.41
76074;BME280;64776;42.636;24.358;2022-12-18T14:44:29;91222.16;;;3.18;93.31
76074;BME280;64776;42.636;24.358;2022-12-18T14:47:29;91224.94;;;3.08;93.44
76074;BME280;64776;42.636;24.358;2022-12-18T14:50:30;91222.66;;;3.10;94.26
76074;BME280;64776;42.636;24.358;2022-12-18T14:53:37;91217.69;;;3.15;93.87
76074;BME280;64776;42.636;24.358;2022-12-18T14:56:44;91224.91;;;3.11;94.40
76074;BME280;64776;42.636;24.358;2022-12-18T14:59:47;91231.19;;;2.94;93.61
76074;BME280;64776;42.636;24.358;2022-12-18T15:02:50;91238.19;;;3.04;94.26
76074;BME280;64776;42.636;24.358;2022-12-18T15:05:53;91246.44;;;3.06;93.91
76074;BME280;64776;42.636;24.358;2022-12-18T15:08:54;91239.56;;;2.86;94.29
76074;BME280;64776;42.636;24.358;2022-12-18T15:11:55;91252.63;;;2.96;94.39
76074;BME280;64776;42.636;24.358;2022-12-18T15:14:58;91244.72;;;2.93;93.96
76074;BME280;64776;42.636;24.358;2022-12-18T15:18:04;91250.69;;;3.00;93.47
76074;BME280;64776;42.636;24.358;2022-12-18T15:21:10;91255.13;;;3.03;92.57
76074;BME280;64776;42.636;24.358;2022-12-18T15:24:17;91255.00;;;3.14;92.29
76074;BME280;64776;42.636;24.358;2022-12-18T15:27:27;91244.03;;;3.15;92.17
76074;BME280;64776;42.636;24.358;2022-12-18T15:30:30;91246.69;;;3.15;91.43
76074;BME280;64776;42.636;24.358;2022-12-18T15:33:32;91256.69;;;3.01;91.91
76074;BME280;64776;42.636;24.358;2022-12-18T15:36:33;91261.97;;;3.01;91.20
76074;BME280;64776;42.636;24.358;2022-12-18T15:39:34;91264.16;;;3.06;90.80
76074;BME280;64776;42.636;24.358;2022-12-18T15:42:35;91266.09;;;3.02;90.55
76074;BME280;64776;42.636;24.358;2022-12-18T15:45:37;91258.13;;;3.05;90.77
76074;BME280;64776;42.636;24.358;2022-12-18T15:48:39;91259.72;;;2.99;91.12
76074;BME280;64776;42.636;24.358;2022-12-18T15:51:40;91260.88;;;3.25;90.83
76074;BME280;64776;42.636;24.358;2022-12-18T15:54:41;91261.22;;;3.27;89.91
76074;BME280;64776;42.636;24.358;2022-12-18T15:57:42;91268.13;;;3.17;89.70
76074;BME280;64776;42.636;24.358;2022-12-18T16:00:44;91274.63;;;3.09;90.17
76074;BME280;64776;42.636;24.358;2022-12-18T16:03:45;91260.69;;;3.12;90.17
76074;BME280;64776;42.636;24.358;2022-12-18T16:06:46;91264.00;;;3.16;90.69
76074;BME280;64776;42.636;24.358;2022-12-18T16:09:47;91270.69;;;3.24;90.06
76074;BME280;64776;42.636;24.358;2022-12-18T16:12:48;91279.00;;;3.23;89.94
76074;BME280;64776;42.636;24.358;2022-12-18T16:15:50;91273.31;;;3.24;90.13